Aviation Digital Data Service (ADDS)

Output produced by METARs form (0745 UTC 22 December 2014)
found at http://www.aviationweather.gov/adds/metars/
 
KALB 220533Z 2206/2306 VRB02KT P6SM BKN025 OVC035 
     TEMPO 2206/2209 SCT025 OVC035 
     FM221500 11005KT P6SM OVC035 
     FM230000 11003KT P6SM VCSH OVC025